createdAt,value
2023-04-12T00:15:02.700Z,0.00
2023-04-12T01:05:12.320Z,0.00
2023-04-12T01:06:11.720Z,0.00
2023-04-12T01:18:49.281Z,0.00
2023-04-12T01:19:49.124Z,0.00
2023-04-12T02:44:07.415Z,0.00
2023-04-12T05:19:41.144Z,5.63
2023-04-12T05:20:40.903Z,5.63
2023-04-12T07:12:40.941Z,45.00
2023-04-12T07:13:28.294Z,50.63
2023-04-12T07:14:27.168Z,50.63
2023-04-12T07:15:27.336Z,50.63
2023-04-12T07:16:25.644Z,56.25
2023-04-12T07:17:27.863Z,56.25
2023-04-12T07:18:25.407Z,61.88
2023-04-12T07:19:25.016Z,61.88
2023-04-12T07:20:25.075Z,61.88
2023-04-12T07:21:25.252Z,67.50
2023-04-12T07:22:24.831Z,67.50
2023-04-12T07:23:24.948Z,67.50
2023-04-12T07:24:24.701Z,61.88
2023-04-12T07:25:24.648Z,61.88
2023-04-12T07:26:24.636Z,61.88
2023-04-12T07:27:24.514Z,61.88
2023-04-12T07:28:24.586Z,61.88
2023-04-12T07:29:24.744Z,61.88
2023-04-12T07:30:24.759Z,61.88
2023-04-12T07:31:24.332Z,61.88
2023-04-12T07:32:24.390Z,61.88
2023-04-12T07:33:24.286Z,61.88
2023-04-12T07:34:26.030Z,61.88
2023-04-12T07:35:24.041Z,67.50
2023-04-12T07:36:24.097Z,67.50
2023-04-12T07:37:23.974Z,73.13
2023-04-12T07:38:23.861Z,73.13
2023-04-12T07:39:23.873Z,67.50
2023-04-12T07:40:23.900Z,67.50
2023-04-12T07:41:23.706Z,73.13
2023-04-12T07:42:23.941Z,73.13
2023-04-12T07:43:23.785Z,73.13
2023-04-12T07:44:23.605Z,73.13
2023-04-12T07:45:23.625Z,73.13
2023-04-12T07:46:23.566Z,67.50
2023-04-12T07:47:23.427Z,67.50
2023-04-12T07:48:23.454Z,61.88
2023-04-12T07:49:23.143Z,61.88
2023-04-12T07:50:23.098Z,56.25
2023-04-12T07:51:23.157Z,56.25
2023-04-12T07:52:23.160Z,56.25
2023-04-12T07:53:23.016Z,56.25
2023-04-12T07:54:23.643Z,56.25
2023-04-12T07:55:22.691Z,61.88
2023-04-12T07:56:22.580Z,61.88
2023-04-12T07:57:22.653Z,61.88
2023-04-12T07:58:22.457Z,56.25
2023-04-12T07:59:22.353Z,56.25
2023-04-12T08:00:22.534Z,50.63
2023-04-12T08:01:22.310Z,56.25
2023-04-12T08:02:22.269Z,56.25
2023-04-12T08:03:22.335Z,56.25
2023-04-12T08:04:22.227Z,56.25
2023-04-12T08:05:22.114Z,56.25
2023-04-12T08:06:21.914Z,56.25
2023-04-12T08:07:21.818Z,56.25
2023-04-12T08:08:21.886Z,56.25
2023-04-12T08:09:21.812Z,61.88
2023-04-12T08:10:21.784Z,67.50
2023-04-12T08:11:21.636Z,73.13
2023-04-12T19:03:57.688Z,0.00
2023-04-12T19:04:57.562Z,0.00
2023-04-12T23:40:06.438Z,0.00
